Terminal Aerodrome Forecast
Issued by NWS Grand Forks, ND

Home | Current Version | Previous Version | Graphics & Text | Print | Product List | Glossary On
Versions: 1 2 3 4 5 6 7 8 9 10 11 12 13 14 15 16 17 18
000
FTUS43 KFGF 281700
TAFGFK
TAF
KGFK 281720Z 2818/2918 32015G22KT P6SM -SN SCT020 BKN025
     FM282000 32015KT P6SM BKN025
     FM290500 32011KT P6SM BKN050
     FM291600 31005KT P6SM SCT006 BKN020=

USA.gov is the U.S. government's official web portal to all federal, state and local government web resources and services.